San Ygnacio, Texas
Current Conditions -  °F | °C
As of 5:15 PM on Friday 19 Dec 2014 (Local Time) from KAPY Reporting Station
Overcast Overcast  
Wind Chill: 16°   Ceiling: 1700
Heat Index: 16°   Visibility: 10mi
Dew Point: 13°   Wind: 5mph
Humidity: 81%   Direction: 350°N
Pressure: 30.06"   Gusts: NA
Location:  27.04°N, 99.44°W
Report Text: KAPY 192315Z AUTO 35004KT 10SM OVC017 16/12 A3006 RMK AO2 T01600128
Loading
Personal Weather Stations






























Interactive Weather Map New forecast layout! Learn more

10-Day Weather Forecast

Advertisements
Track Severe Weather on mobile